Flight Track Log - Related Links

Times and Time Zones

All times are in EDT time to prevent confusion due to time zone crossing. See the CSJ405 flight status page for this flight to view local times or setup timezone preferences in your user account.

Time Position Orientation Groundspeed Altitude Reporting Facility
EDT Latitude Longitude Course Direction KTS MPH feet Rate Location/Type
Wed 05:33:01 PM 42.7339 -73.8053 188° South 104 120 1,100  Level Boston Center
Wed 05:33:32 PM 42.7214 -73.8078 188° South 104 120 1,600 1,319 Climbing Boston Center
Wed 05:34:32 PM 42.6942 -73.8214 200° South 102 117 3,100 1,488 Climbing Boston Center
Wed 05:35:33 PM 42.6689 -73.8406 209° Southwest 110 127 4,600 1,377 Climbing Boston Center
Wed 05:36:34 PM 42.6417 -73.8625 211° Southwest 116 133 5,900 1,289 Climbing Boston Center
Wed 05:37:34 PM 42.6142 -73.8931 219° Southwest 120 138 7,200 1,091 Climbing Boston Center
Wed 05:38:35 PM 42.5825 -73.9147 207° Southwest 123 142 8,100 443 Climbing Boston Center
Wed 05:39:36 PM 42.5425 -73.9478 211° Southwest 172 198 8,100  Level Boston Center
Wed 05:40:36 PM 42.5025 -73.9778 209° Southwest 175 201 8,100  Level Boston Center
Wed 05:41:50 PM 42.4542 -74.0186 212° Southwest 174 200 8,100 -45 Level Boston Center
Wed 05:42:50 PM 42.4181 -74.0489 212° Southwest 174 200 8,000 -50 Descending Boston Center
Wed 05:43:50 PM 42.3719 -74.0814 208° Southwest 174 200 8,000  Level Boston Center
Wed 05:44:50 PM 42.3361 -74.1111 212° Southwest 174 200 8,000  Level Boston Center
Wed 05:46:02 PM 42.2917 -74.1436 208° Southwest 174 200 8,000  Level Boston Center
Wed 05:47:02 PM 42.2389 -74.1872 211° Southwest 174 200 8,000  Level Boston Center
Wed 05:48:02 PM 42.2011 -74.2142 208° Southwest 174 200 8,000  Level Boston Center
Wed 05:49:02 PM 42.1547 -74.2492 209° Southwest 174 200 8,000  Level Boston Center
Wed 05:50:02 PM 42.1167 -74.2761 208° Southwest 174 200 8,000  Level Boston Center
Wed 05:51:02 PM 42.0703 -74.3083 207° Southwest 179 206 8,000 -150 Level Boston Center
Wed 05:52:02 PM 42.0303 -74.3350 206° Southwest 179 206 7,700 -450 Descending Boston Center
Wed 05:53:02 PM 41.9794 -74.3756 211° Southwest 184 212 7,100 -300 Descending Boston Center
Wed 05:54:02 PM 41.9500 -74.3969 208° Southwest 179 206 7,100  Level Boston Center
Wed 05:55:02 PM 41.8953 -74.4342 207° Southwest 179 206 7,100  Level Boston Center
Wed 05:56:02 PM 41.8572 -74.4608 208° Southwest 179 206 7,100  Level Boston Center
Wed 05:57:02 PM 41.8086 -74.4956 208° Southwest 179 206 7,100  Level Boston Center
Wed 05:58:02 PM 41.7789 -74.5169 208° Southwest 179 206 7,100  Level Boston Center
Wed 05:59:02 PM 41.7203 -74.5428 198° South 174 200 7,100  Level Boston Center
Wed 06:00:02 PM 41.6742 -74.5442 181° South 164 189 7,100 -100 Level Boston Center
Wed 06:01:02 PM 41.6261 -74.5508 186° South 164 189 6,900 -350 Descending Boston Center
Wed 06:02:02 PM 41.5781 -74.5603 188° South 174 200 6,400 -400 Descending Boston Center
Wed 06:03:02 PM 41.5281 -74.5697 188° South 179 206 6,100 -150 Descending Boston Center
Wed 06:04:02 PM 41.4819 -74.5792 189° South 179 206 6,100  Level Boston Center
Wed 06:05:02 PM 41.4339 -74.5861 186° South 179 206 6,100  Level Boston Center
Wed 06:06:33 PM 41.3667 -74.6000 189° South 172 198 6,100  Level New York TRACON
Wed 06:07:33 PM 41.3167 -74.6333 207° Southwest 170 196 6,100  Level New York TRACON
Wed 06:08:39 PM 41.2667 -74.6500 194° South 171 197 6,100 -333 Level New York TRACON
Wed 06:09:39 PM 41.2167 -74.6500 180° South 180 207 5,400 -684 Descending New York TRACON
Wed 06:10:33 PM 41.1667 -74.6500 180° South 181 208 4,800 -684 Descending New York TRACON
Wed 06:11:33 PM 41.1333 -74.6167 143° Southeast 182 209 4,100 -350 Descending New York TRACON
Wed 06:12:33 PM 41.1000 -74.5833 143° Southeast 165 190 4,100 50 Level New York TRACON
Wed 06:13:33 PM 41.1000 -74.5333 90° East 156 180 4,200 -53 Climbing New York TRACON
Wed 06:14:27 PM 41.0667 -74.5000 143° Southeast 159 183 4,000 -450 Descending New York TRACON
Wed 06:15:33 PM 41.0333 -74.4500 131° Southeast 170 196 3,300 -429 Descending New York TRACON
Wed 06:16:33 PM 41.0000 -74.4167 143° Southeast 156 180 3,100 -350 Descending New York TRACON
Wed 06:17:33 PM 40.9667 -74.3833 143° Southeast 165 190 2,600 -526 Descending New York TRACON
Wed 06:18:27 PM 40.9333 -74.3500 143° Southeast 164 189 2,100 -263 Descending New York TRACON
Wed 06:19:27 PM 40.9167 -74.3167 123° Southeast 84 97 2,100 -381 Level New York TRACON
Wed 06:20:33 PM 40.9000 -74.2667 114° Southeast 148 170 1,300 -727 Descending New York TRACON
Wed 06:23:00 PM 40.8667 -74.2667 128° Southeast  Level FlightAware Approximate
Wed 06:30:00 PM 40.8752 -74.2814 128° Southeast  Level Estimated
Wed 06:31:00 PM 40.8752 -74.2814 128° Southeast  Level Estimated

Login

Don't have an account? Register now (free) for customized features, flight alerts, and more!